createdAt,value
2019-05-06T00:01:36.404Z,31.30
2019-05-06T00:04:05.421Z,50.28
2019-05-06T00:06:34.596Z,26.73
2019-05-06T00:09:05.308Z,30.48
2019-05-06T00:11:34.783Z,34.92
2019-05-06T00:14:04.251Z,36.35
2019-05-06T00:16:34.623Z,45.85
2019-05-06T00:19:04.896Z,44.55
2019-05-06T00:21:37.208Z,42.85
2019-05-06T00:24:06.010Z,43.00
2019-05-06T00:26:44.857Z,35.92
2019-05-06T00:29:18.873Z,35.28
2019-05-06T00:31:50.616Z,39.55
2019-05-06T00:34:19.450Z,39.18
2019-05-06T00:36:48.255Z,37.35
2019-05-06T00:39:24.219Z,29.65
2019-05-06T00:42:00.503Z,40.88
2019-05-06T00:44:29.305Z,51.18
2019-05-06T00:46:58.519Z,42.85
2019-05-06T00:49:27.430Z,43.17
2019-05-06T00:51:57.156Z,44.13
2019-05-06T00:54:30.362Z,40.78
2019-05-06T00:56:59.883Z,39.88
2019-05-06T00:59:28.687Z,44.48
2019-05-06T01:01:58.297Z,41.75
2019-05-06T01:04:27.630Z,39.10
2019-05-06T01:06:56.639Z,40.00
2019-05-06T01:09:25.740Z,41.60
2019-05-06T01:11:56.912Z,42.38
2019-05-06T01:16:55.750Z,35.23
2019-05-06T01:19:25.681Z,40.75
2019-05-06T01:21:54.691Z,37.05
2019-05-06T01:24:23.967Z,38.63
2019-05-06T01:26:53.666Z,35.88
2019-05-06T01:29:24.050Z,38.73
2019-05-06T01:31:54.402Z,43.10
2019-05-06T01:34:24.486Z,42.15
2019-05-06T01:36:54.662Z,44.18
2019-05-06T01:39:28.611Z,39.97
2019-05-06T01:41:59.389Z,33.40
2019-05-06T01:44:29.700Z,35.78
2019-05-06T01:46:58.504Z,45.85
2019-05-06T01:49:27.823Z,34.70
2019-05-06T01:51:57.651Z,30.32
2019-05-06T01:54:28.015Z,34.25
2019-05-06T01:56:56.900Z,32.50
2019-05-06T01:59:26.197Z,29.52
2019-05-06T02:02:00.831Z,31.50
2019-05-06T02:04:25.670Z,43.48
2019-05-06T02:06:55.091Z,32.42
2019-05-06T02:09:24.678Z,40.48
2019-05-06T02:11:54.344Z,41.15
2019-05-06T02:14:24.767Z,33.23
2019-05-06T02:16:54.757Z,30.35
2019-05-06T02:19:24.950Z,99.85
2019-05-06T02:21:55.381Z,150.85
2019-05-06T02:24:29.007Z,69.80
2019-05-06T02:26:58.838Z,57.40
2019-05-06T02:29:35.529Z,39.42
2019-05-06T02:32:24.561Z,32.60
2019-05-06T02:34:45.820Z,30.05
2019-05-06T02:37:21.180Z,34.67
2019-05-06T02:39:53.323Z,36.40
2019-05-06T02:42:23.852Z,35.65
2019-05-06T02:44:54.151Z,26.82
2019-05-06T02:49:56.160Z,33.98
2019-05-06T02:52:25.056Z,278.88
2019-05-06T02:54:54.011Z,457.62
2019-05-06T02:57:24.314Z,420.30
2019-05-06T02:59:55.169Z,73.87
2019-05-06T03:02:37.983Z,52.33
2019-05-06T03:04:54.212Z,38.67
2019-05-06T03:07:23.589Z,33.75
2019-05-06T03:09:53.412Z,31.70
2019-05-06T03:12:23.680Z,27.13
2019-05-06T03:14:53.430Z,26.95
2019-05-06T03:17:23.968Z,27.15
2019-05-06T03:19:54.506Z,28.00
2019-05-06T03:22:27.874Z,27.17
2019-05-06T03:24:57.240Z,28.87
2019-05-06T03:27:28.091Z,24.95
2019-05-06T03:29:57.717Z,27.70
2019-05-06T03:32:30.746Z,30.02
2019-05-06T03:35:18.986Z,30.40
2019-05-06T03:37:28.021Z,29.25
2019-05-06T03:39:59.180Z,29.35
2019-05-06T03:42:27.989Z,28.25
2019-05-06T03:44:58.633Z,28.50
2019-05-06T03:47:34.577Z,28.12
2019-05-06T03:50:06.276Z,27.05
2019-05-06T03:52:35.468Z,24.15
2019-05-06T03:55:06.229Z,18.62
2019-05-06T03:57:37.809Z,21.75
2019-05-06T04:00:09.241Z,19.98
2019-05-06T04:02:40.012Z,18.15
2019-05-06T04:05:13.248Z,17.37
2019-05-06T04:07:45.489Z,19.77
2019-05-06T04:10:13.910Z,17.82
2019-05-06T04:12:45.675Z,16.37
2019-05-06T04:15:15.031Z,17.98
2019-05-06T04:17:58.542Z,16.40
2019-05-06T04:20:28.993Z,14.78
2019-05-06T04:23:05.978Z,18.82
2019-05-06T04:25:47.044Z,14.47
2019-05-06T04:28:23.566Z,15.00
2019-05-06T04:30:54.475Z,13.25
2019-05-06T04:33:23.762Z,16.90
2019-05-06T04:35:54.079Z,10.88
2019-05-06T04:38:23.753Z,14.70
2019-05-06T04:40:54.039Z,13.03
2019-05-06T04:43:26.688Z,12.30
2019-05-06T04:45:54.356Z,14.28
2019-05-06T04:48:24.052Z,12.80
2019-05-06T04:50:54.914Z,11.45
2019-05-06T04:53:27.112Z,13.00
2019-05-06T04:55:54.428Z,13.25
2019-05-06T04:58:24.461Z,15.23
2019-05-06T05:00:54.288Z,14.80
2019-05-06T05:03:24.202Z,12.63
2019-05-06T05:05:53.304Z,14.87
2019-05-06T05:08:25.719Z,14.05
2019-05-06T05:11:03.635Z,15.32
2019-05-06T05:13:37.558Z,14.75
2019-05-06T05:16:14.036Z,12.80
2019-05-06T05:18:54.406Z,13.53
2019-05-06T05:21:23.210Z,10.77
2019-05-06T05:23:52.512Z,11.88
2019-05-06T05:26:22.565Z,7.97
2019-05-06T05:28:53.235Z,7.35
2019-05-06T05:31:23.447Z,8.68
2019-05-06T05:33:52.868Z,8.55
2019-05-06T05:36:23.213Z,9.15
2019-05-06T05:38:52.331Z,13.00
2019-05-06T05:41:23.216Z,11.97
2019-05-06T05:43:54.742Z,7.92
2019-05-06T05:46:26.593Z,8.10
2019-05-06T05:49:02.994Z,11.12
2019-05-06T05:51:32.695Z,9.75
2019-05-06T05:54:02.218Z,7.87
2019-05-06T05:56:33.023Z,9.15
2019-05-06T05:59:03.274Z,8.95
2019-05-06T06:01:32.913Z,8.15
2019-05-06T06:04:05.250Z,8.60
2019-05-06T06:06:35.277Z,6.53
2019-05-06T06:09:06.128Z,9.83
2019-05-06T06:11:49.672Z,10.13
2019-05-06T06:14:29.325Z,6.58
2019-05-06T06:17:02.040Z,5.72
2019-05-06T06:19:32.933Z,6.05
2019-05-06T06:24:35.237Z,8.58
2019-05-06T06:27:04.928Z,5.92
2019-05-06T06:29:33.926Z,4.40
2019-05-06T06:32:05.190Z,3.72
2019-05-06T06:37:24.700Z,5.95
2019-05-06T06:39:54.713Z,4.65
2019-05-06T06:42:25.255Z,3.92
2019-05-06T06:44:54.802Z,4.05
2019-05-06T06:47:23.592Z,4.80
2019-05-06T06:49:53.459Z,3.67
2019-05-06T06:52:23.232Z,2.67
2019-05-06T06:54:52.824Z,2.35
2019-05-06T06:57:30.967Z,5.17
2019-05-06T07:00:04.243Z,4.60
2019-05-06T07:02:43.215Z,4.87
2019-05-06T07:05:33.448Z,3.72
2019-05-06T07:08:03.277Z,3.30
2019-05-06T07:10:43.854Z,3.72
2019-05-06T07:13:16.446Z,4.00
2019-05-06T07:15:49.313Z,3.12
2019-05-06T07:18:19.259Z,3.17
2019-05-06T07:20:52.413Z,2.92
2019-05-06T07:23:25.768Z,3.85
2019-05-06T07:25:56.319Z,3.62
2019-05-06T07:28:25.610Z,4.12
2019-05-06T07:30:56.545Z,3.87
2019-05-06T07:33:25.410Z,2.85
2019-05-06T07:35:55.239Z,3.08
2019-05-06T07:38:24.148Z,3.98
2019-05-06T07:41:04.214Z,3.90
2019-05-06T07:43:36.294Z,4.80
2019-05-06T07:46:07.961Z,3.58
2019-05-06T07:48:36.952Z,2.98
2019-05-06T07:51:05.989Z,4.65
2019-05-06T07:53:34.895Z,4.78
2019-05-06T07:56:03.777Z,4.75
2019-05-06T07:58:32.910Z,4.20
2019-05-06T08:01:03.350Z,2.58
2019-05-06T08:03:33.938Z,3.15
2019-05-06T08:06:03.013Z,3.62
2019-05-06T08:08:33.427Z,2.58
2019-05-06T08:11:02.788Z,2.45
2019-05-06T08:13:32.245Z,2.35
2019-05-06T08:16:02.231Z,5.30
2019-05-06T08:18:33.052Z,2.42
2019-05-06T08:21:03.627Z,3.95
2019-05-06T08:23:40.101Z,2.70
2019-05-06T08:26:12.814Z,2.58
2019-05-06T08:28:41.517Z,3.80
2019-05-06T08:31:10.100Z,3.25
2019-05-06T08:33:38.905Z,4.28
2019-05-06T08:36:12.519Z,2.65
2019-05-06T08:38:59.552Z,2.75
2019-05-06T08:41:28.654Z,4.10
2019-05-06T08:43:57.555Z,3.17
2019-05-06T08:46:26.472Z,3.20
2019-05-06T08:48:55.287Z,2.40
2019-05-06T08:51:25.822Z,5.25
2019-05-06T08:53:59.235Z,5.60
2019-05-06T08:56:28.037Z,2.52
2019-05-06T08:58:57.239Z,3.15
2019-05-06T09:01:27.679Z,3.25
2019-05-06T09:04:08.746Z,2.33
2019-05-06T09:06:30.463Z,2.80
2019-05-06T09:08:57.611Z,3.75
2019-05-06T09:11:26.498Z,2.58
2019-05-06T09:13:55.408Z,3.35
2019-05-06T09:16:24.212Z,3.12
2019-05-06T09:18:53.418Z,2.92
2019-05-06T09:21:22.769Z,3.22
2019-05-06T09:23:53.221Z,4.47
2019-05-06T09:26:34.854Z,2.37
2019-05-06T09:31:37.514Z,4.55
2019-05-06T09:34:14.302Z,3.12
2019-05-06T09:36:51.483Z,6.58
2019-05-06T09:39:13.752Z,3.62
2019-05-06T09:41:47.310Z,4.58
2019-05-06T09:44:13.211Z,3.45
2019-05-06T09:46:42.607Z,3.92
2019-05-06T09:49:13.365Z,4.70
2019-05-06T09:51:42.557Z,3.98
2019-05-06T09:54:25.627Z,2.37
2019-05-06T09:56:56.276Z,3.35
2019-05-06T09:59:25.178Z,3.22
2019-05-06T10:01:54.083Z,4.40
2019-05-06T10:04:22.991Z,4.05
2019-05-06T10:06:57.202Z,2.75
2019-05-06T10:09:24.915Z,2.30
2019-05-06T10:11:52.994Z,4.25
2019-05-06T10:14:23.362Z,3.22
2019-05-06T10:16:52.610Z,2.83
2019-05-06T10:19:22.613Z,2.20
2019-05-06T10:21:53.024Z,3.33
2019-05-06T10:24:22.441Z,3.00
2019-05-06T10:26:53.198Z,5.12
2019-05-06T10:29:23.731Z,3.35
2019-05-06T10:31:56.638Z,2.58
2019-05-06T10:34:25.545Z,3.33
2019-05-06T10:37:19.431Z,3.60
2019-05-06T10:40:03.523Z,5.17
2019-05-06T10:42:39.019Z,3.25
2019-05-06T10:45:32.188Z,2.55
2019-05-06T10:48:02.177Z,3.42
2019-05-06T10:50:32.678Z,4.72
2019-05-06T10:53:22.966Z,3.33
2019-05-06T10:55:53.582Z,3.20
2019-05-06T10:58:22.919Z,4.03
2019-05-06T11:00:59.728Z,5.35
2019-05-06T11:03:28.741Z,4.53
2019-05-06T11:05:57.754Z,3.67
2019-05-06T11:08:26.666Z,3.67
2019-05-06T11:10:55.563Z,9.68
2019-05-06T11:13:24.654Z,3.50
2019-05-06T11:15:55.511Z,3.58
2019-05-06T11:18:24.641Z,2.85
2019-05-06T11:20:56.301Z,3.65
2019-05-06T11:23:25.330Z,5.87
2019-05-06T11:25:54.129Z,3.05
2019-05-06T11:28:42.707Z,2.87
2019-05-06T11:31:26.642Z,4.67
2019-05-06T11:34:12.628Z,3.45
2019-05-06T11:36:52.564Z,3.58
2019-05-06T11:39:23.346Z,3.67
2019-05-06T11:42:06.318Z,6.00
2019-05-06T11:44:23.851Z,3.35
2019-05-06T11:46:53.139Z,3.33
2019-05-06T11:49:23.255Z,4.08
2019-05-06T11:51:52.608Z,2.58
2019-05-06T11:54:24.502Z,5.47
2019-05-06T11:56:58.154Z,2.70
2019-05-06T11:59:24.846Z,3.52
2019-05-06T12:02:02.635Z,5.65
2019-05-06T12:04:32.885Z,3.70
2019-05-06T12:07:10.344Z,5.28
2019-05-06T12:09:33.404Z,5.42
2019-05-06T12:12:03.314Z,3.45
2019-05-06T12:14:32.506Z,3.75
2019-05-06T12:17:02.237Z,4.65
2019-05-06T12:19:32.473Z,5.65
2019-05-06T12:22:01.598Z,3.92
2019-05-06T12:24:30.502Z,3.35
2019-05-06T12:26:59.415Z,3.10
2019-05-06T12:29:28.213Z,3.52
2019-05-06T12:31:58.865Z,5.97
2019-05-06T12:34:27.768Z,2.75
2019-05-06T12:36:58.315Z,3.25
2019-05-06T12:39:28.151Z,3.35
2019-05-06T12:42:10.773Z,4.72
2019-05-06T12:44:39.984Z,4.05
2019-05-06T12:47:12.926Z,7.03
2019-05-06T12:49:42.603Z,3.80
2019-05-06T12:52:12.374Z,4.78
2019-05-06T12:54:42.885Z,2.50
2019-05-06T12:57:12.666Z,3.05
2019-05-06T12:59:42.596Z,3.12
2019-05-06T13:02:13.211Z,3.77
2019-05-06T13:04:51.270Z,3.85
2019-05-06T13:07:14.580Z,2.77
2019-05-06T13:09:45.478Z,4.33
2019-05-06T13:12:15.569Z,6.90
2019-05-06T13:14:44.372Z,3.40
2019-05-06T13:17:14.923Z,3.87
2019-05-06T13:19:43.832Z,5.47
2019-05-06T13:22:14.269Z,3.08
2019-05-06T13:24:43.283Z,3.50
2019-05-06T13:27:13.847Z,5.03
2019-05-06T13:29:43.011Z,8.10
2019-05-06T13:32:13.590Z,3.25
2019-05-06T13:34:42.545Z,1.95
2019-05-06T13:37:12.827Z,2.27
2019-05-06T13:39:43.594Z,2.97
2019-05-06T13:42:14.336Z,2.40
2019-05-06T13:44:43.351Z,2.25
2019-05-06T13:47:13.788Z,2.62
2019-05-06T13:49:44.237Z,3.50
2019-05-06T13:52:13.244Z,2.53
2019-05-06T13:54:42.376Z,2.22
2019-05-06T13:57:12.433Z,3.80
2019-05-06T13:59:44.221Z,2.90
2019-05-06T14:02:26.576Z,3.37
2019-05-06T14:04:55.486Z,2.87
2019-05-06T14:07:25.578Z,2.20
2019-05-06T14:09:54.740Z,3.83
2019-05-06T14:12:23.561Z,3.90
2019-05-06T14:14:52.802Z,1.92
2019-05-06T14:17:23.166Z,2.22
2019-05-06T14:19:53.321Z,3.27
2019-05-06T14:22:23.264Z,2.00
2019-05-06T14:24:54.424Z,3.00
2019-05-06T14:27:23.330Z,2.85
2019-05-06T14:29:59.604Z,2.10
2019-05-06T14:32:28.512Z,7.90
2019-05-06T14:34:57.523Z,2.72
2019-05-06T14:37:26.545Z,3.85
2019-05-06T14:39:59.373Z,6.20
2019-05-06T14:42:27.727Z,2.77
2019-05-06T14:44:56.533Z,4.85
2019-05-06T14:47:29.841Z,3.35
2019-05-06T14:49:58.955Z,5.33
2019-05-06T14:52:27.863Z,4.65
2019-05-06T14:54:58.404Z,2.40
2019-05-06T14:57:27.314Z,3.80
2019-05-06T14:59:56.330Z,4.47
2019-05-06T15:02:27.373Z,2.80
2019-05-06T15:04:56.515Z,4.45
2019-05-06T15:07:25.401Z,4.40
2019-05-06T15:10:07.961Z,3.20
2019-05-06T15:12:24.758Z,3.60
2019-05-06T15:14:53.659Z,3.70
2019-05-06T15:17:23.057Z,4.83
2019-05-06T15:19:52.756Z,3.87
2019-05-06T15:22:22.532Z,3.05
2019-05-06T15:24:53.581Z,3.87
2019-05-06T15:27:22.878Z,1.52
2019-05-06T15:29:55.013Z,3.35
2019-05-06T15:32:32.103Z,4.33
2019-05-06T15:35:15.012Z,2.45
2019-05-06T15:37:45.466Z,2.45
2019-05-06T15:40:14.998Z,6.87
2019-05-06T15:42:43.988Z,3.20
2019-05-06T15:45:13.097Z,5.10
2019-05-06T15:47:42.754Z,3.52
2019-05-06T15:50:12.877Z,5.85
2019-05-06T15:52:43.531Z,3.85
2019-05-06T15:55:13.702Z,5.92
2019-05-06T15:57:43.538Z,2.27
2019-05-06T16:00:14.731Z,4.62
2019-05-06T16:02:43.535Z,11.95
2019-05-06T16:05:19.457Z,3.50
2019-05-06T16:07:43.472Z,4.90
2019-05-06T16:10:13.749Z,2.83
2019-05-06T16:12:47.309Z,3.58
2019-05-06T16:15:16.483Z,4.25
2019-05-06T16:17:45.477Z,6.08
2019-05-06T16:20:14.386Z,3.75
2019-05-06T16:22:45.030Z,3.65
2019-05-06T16:25:18.237Z,2.77
2019-05-06T16:27:51.374Z,3.85
2019-05-06T16:30:23.858Z,5.03
2019-05-06T16:32:50.077Z,6.80
2019-05-06T16:35:18.988Z,2.33
2019-05-06T16:37:47.896Z,4.05
2019-05-06T16:40:17.555Z,6.60
2019-05-06T16:42:46.438Z,4.70
2019-05-06T16:45:18.541Z,3.30
2019-05-06T16:47:46.286Z,4.22
2019-05-06T16:50:17.869Z,3.05
2019-05-06T16:52:46.660Z,3.58
2019-05-06T16:55:36.783Z,5.03
2019-05-06T16:58:06.483Z,6.72
2019-05-06T17:00:36.722Z,3.62
2019-05-06T17:03:19.342Z,4.20
2019-05-06T17:06:07.182Z,7.17
2019-05-06T17:08:36.703Z,10.80
2019-05-06T17:11:05.919Z,8.48
2019-05-06T17:13:37.665Z,10.72
2019-05-06T17:16:05.471Z,9.98
2019-05-06T17:18:34.277Z,9.85
2019-05-06T17:21:03.049Z,13.43
2019-05-06T17:23:32.491Z,15.05
2019-05-06T17:26:01.727Z,8.10
2019-05-06T17:28:33.507Z,8.73
2019-05-06T17:31:19.374Z,8.60
2019-05-06T17:33:51.776Z,5.53
2019-05-06T17:36:28.257Z,6.53
2019-05-06T17:38:57.574Z,4.35
2019-05-06T17:41:35.202Z,4.33
2019-05-06T17:43:56.936Z,6.92
2019-05-06T17:46:30.026Z,7.20
2019-05-06T17:49:02.395Z,10.95
2019-05-06T17:51:38.898Z,7.10
2019-05-06T17:54:07.795Z,6.95
2019-05-06T17:56:36.715Z,5.22
2019-05-06T17:59:05.620Z,7.17
2019-05-06T18:01:38.525Z,6.97
2019-05-06T18:04:07.312Z,9.58
2019-05-06T18:06:37.246Z,9.30
2019-05-06T18:09:08.826Z,7.40
2019-05-06T18:11:37.835Z,9.58
2019-05-06T18:14:06.827Z,5.97
2019-05-06T18:16:35.856Z,9.83
2019-05-06T18:19:04.870Z,9.18
2019-05-06T18:21:33.669Z,7.45
2019-05-06T18:24:03.048Z,9.50
2019-05-06T18:26:33.307Z,8.25
2019-05-06T18:29:02.546Z,9.33
2019-05-06T18:31:33.491Z,11.33
2019-05-06T18:34:03.230Z,10.03
2019-05-06T18:36:32.542Z,11.97
2019-05-06T18:39:03.171Z,13.28
2019-05-06T18:41:32.911Z,16.52
2019-05-06T18:44:02.027Z,11.70
2019-05-06T18:46:32.395Z,15.60
2019-05-06T18:49:02.530Z,15.60
2019-05-06T18:51:31.620Z,14.80
2019-05-06T18:54:02.923Z,11.20
2019-05-06T18:56:32.777Z,11.95
2019-05-06T18:59:02.823Z,14.75
2019-05-06T19:01:33.146Z,17.50
2019-05-06T19:04:04.042Z,17.02
2019-05-06T19:06:32.842Z,16.57
2019-05-06T19:09:03.281Z,20.05
2019-05-06T19:11:32.673Z,16.20
2019-05-06T19:14:02.097Z,17.77
2019-05-06T19:16:46.234Z,15.65
2019-05-06T19:19:03.808Z,19.77
2019-05-06T19:21:32.593Z,15.78
2019-05-06T19:24:02.788Z,16.07
2019-05-06T19:26:32.659Z,14.00
2019-05-06T19:29:04.360Z,14.73
2019-05-06T19:31:32.682Z,11.75
2019-05-06T19:34:03.222Z,12.60
2019-05-06T19:36:34.773Z,13.25
2019-05-06T19:39:04.729Z,11.08
2019-05-06T19:41:33.723Z,13.18
2019-05-06T19:44:02.526Z,13.53
2019-05-06T19:46:32.692Z,14.45
2019-05-06T19:49:02.113Z,22.07
2019-05-06T19:51:32.952Z,20.77
2019-05-06T19:54:02.218Z,21.35
2019-05-06T19:56:31.351Z,17.40
2019-05-06T19:59:02.044Z,15.20
2019-05-06T20:01:32.349Z,19.45
2019-05-06T20:04:02.545Z,26.52
2019-05-06T20:06:48.490Z,21.60
2019-05-06T20:09:22.076Z,32.63
2019-05-06T20:11:52.032Z,27.58
2019-05-06T20:14:22.037Z,32.40
2019-05-06T20:16:52.885Z,32.40
2019-05-06T20:19:30.881Z,30.55
2019-05-06T20:21:52.749Z,27.42
2019-05-06T20:24:22.543Z,32.15
2019-05-06T20:26:52.769Z,43.83
2019-05-06T20:29:22.406Z,21.93
2019-05-06T20:31:53.429Z,35.50
2019-05-06T20:34:22.537Z,20.88
2019-05-06T20:36:52.801Z,32.98
2019-05-06T20:39:22.977Z,44.30
2019-05-06T20:41:52.024Z,35.85
2019-05-06T20:44:22.901Z,28.62
2019-05-06T20:46:52.691Z,34.85
2019-05-06T20:49:21.819Z,24.75
2019-05-06T20:51:59.629Z,21.75
2019-05-06T20:54:28.535Z,28.50
2019-05-06T20:56:57.445Z,26.35
2019-05-06T20:59:26.351Z,29.60
2019-05-06T21:01:55.397Z,40.20
2019-05-06T21:04:24.372Z,31.37
2019-05-06T21:06:53.281Z,31.17
2019-05-06T21:09:23.300Z,34.73
2019-05-06T21:11:53.817Z,37.73
2019-05-06T21:14:22.840Z,34.03
2019-05-06T21:16:53.925Z,21.42
2019-05-06T21:19:22.834Z,25.45
2019-05-06T21:21:52.770Z,24.40
2019-05-06T21:24:22.586Z,23.10
2019-05-06T21:26:53.142Z,22.17
2019-05-06T21:29:23.192Z,17.52
2019-05-06T21:31:53.059Z,19.05
2019-05-06T21:34:22.406Z,15.25
2019-05-06T21:36:53.266Z,13.15
2019-05-06T21:39:22.503Z,8.10
2019-05-06T21:41:52.191Z,7.33
2019-05-06T21:44:22.810Z,9.05
2019-05-06T21:46:54.007Z,7.72
2019-05-06T21:49:23.008Z,8.88
2019-05-06T21:51:52.041Z,8.73
2019-05-06T21:54:23.167Z,5.78
2019-05-06T21:56:53.245Z,5.85
2019-05-06T21:59:22.448Z,8.50
2019-05-06T22:01:52.020Z,9.05
2019-05-06T22:04:23.177Z,9.63
2019-05-06T22:06:52.410Z,9.15
2019-05-06T22:09:22.593Z,10.93
2019-05-06T22:11:53.062Z,10.93
2019-05-06T22:14:22.930Z,14.35
2019-05-06T22:16:52.071Z,11.97
2019-05-06T22:19:20.976Z,13.03
2019-05-06T22:22:06.061Z,13.25
2019-05-06T22:24:48.163Z,12.80
2019-05-06T22:27:17.696Z,13.72
2019-05-06T22:29:46.884Z,15.48
2019-05-06T22:32:15.809Z,16.40
2019-05-06T22:34:44.702Z,13.13
2019-05-06T22:37:13.914Z,15.05
2019-05-06T22:39:43.586Z,11.85
2019-05-06T22:42:12.774Z,13.30
2019-05-06T22:44:42.922Z,13.65
2019-05-06T22:47:12.205Z,16.67
2019-05-06T22:49:41.336Z,14.05
2019-05-06T22:52:12.434Z,16.32
2019-05-06T22:54:43.064Z,14.47
2019-05-06T22:57:12.062Z,10.28
2019-05-06T22:59:42.776Z,11.53
2019-05-06T23:02:16.518Z,12.18
2019-05-06T23:04:46.964Z,16.35
2019-05-06T23:07:15.872Z,10.88
2019-05-06T23:09:44.781Z,12.00
2019-05-06T23:12:13.685Z,14.28
2019-05-06T23:14:42.569Z,12.98
2019-05-06T23:17:12.709Z,12.95
2019-05-06T23:19:42.884Z,11.33
2019-05-06T23:22:12.205Z,14.65
2019-05-06T23:24:41.395Z,14.38
2019-05-06T23:27:12.499Z,14.40
2019-05-06T23:29:42.508Z,16.37
2019-05-06T23:32:13.719Z,17.05
2019-05-06T23:34:43.289Z,17.30
2019-05-06T23:37:15.351Z,19.85
2019-05-06T23:40:22.182Z,12.95
2019-05-06T23:43:27.671Z,13.43
2019-05-06T23:46:33.321Z,14.78
2019-05-06T23:49:38.762Z,11.68
2019-05-06T23:52:44.307Z,9.65
2019-05-06T23:55:51.809Z,10.85
2019-05-06T23:58:18.950Z,12.88
